sensor_id;sensor_type;location;lat;lon;timestamp;P1;durP1;ratioP1;P2;durP2;ratioP2
41903;SDS011;27586;51.124;4.182;2023-02-15T00:00:21;51.58;;;36.63;;
41903;SDS011;27586;51.124;4.182;2023-02-15T00:02:46;52.00;;;37.42;;
41903;SDS011;27586;51.124;4.182;2023-02-15T00:05:12;48.80;;;34.92;;
41903;SDS011;27586;51.124;4.182;2023-02-15T00:07:38;50.90;;;36.28;;
41903;SDS011;27586;51.124;4.182;2023-02-15T00:10:04;50.45;;;35.10;;
41903;SDS011;27586;51.124;4.182;2023-02-15T00:12:30;53.28;;;38.05;;
41903;SDS011;27586;51.124;4.182;2023-02-15T00:14:56;56.55;;;37.38;;
41903;SDS011;27586;51.124;4.182;2023-02-15T00:17:22;52.33;;;38.38;;
41903;SDS011;27586;51.124;4.182;2023-02-15T00:19:47;54.50;;;38.55;;
41903;SDS011;27586;51.124;4.182;2023-02-15T00:22:13;58.50;;;40.70;;
41903;SDS011;27586;51.124;4.182;2023-02-15T00:24:38;58.92;;;40.03;;
41903;SDS011;27586;51.124;4.182;2023-02-15T00:27:04;62.22;;;39.75;;
41903;SDS011;27586;51.124;4.182;2023-02-15T00:29:30;59.63;;;39.55;;
41903;SDS011;27586;51.124;4.182;2023-02-15T00:31:56;51.50;;;45.45;;
41903;SDS011;27586;51.124;4.182;2023-02-15T00:34:23;62.70;;;40.47;;
41903;SDS011;27586;51.124;4.182;2023-02-15T00:36:50;57.50;;;41.25;;
41903;SDS011;27586;51.124;4.182;2023-02-15T00:39:16;53.97;;;39.88;;
41903;SDS011;27586;51.124;4.182;2023-02-15T00:41:43;53.60;;;38.72;;
41903;SDS011;27586;51.124;4.182;2023-02-15T00:44:10;53.25;;;36.08;;
41903;SDS011;27586;51.124;4.182;2023-02-15T00:46:36;54.42;;;38.08;;
41903;SDS011;27586;51.124;4.182;2023-02-15T00:49:02;50.25;;;36.50;;
41903;SDS011;27586;51.124;4.182;2023-02-15T00:51:28;53.80;;;37.10;;
41903;SDS011;27586;51.124;4.182;2023-02-15T00:53:54;54.33;;;37.25;;
41903;SDS011;27586;51.124;4.182;2023-02-15T00:56:19;48.33;;;40.92;;
41903;SDS011;27586;51.124;4.182;2023-02-15T00:58:45;47.85;;;34.33;;
41903;SDS011;27586;51.124;4.182;2023-02-15T01:01:12;48.92;;;35.40;;
41903;SDS011;27586;51.124;4.182;2023-02-15T01:03:39;50.85;;;35.33;;
41903;SDS011;27586;51.124;4.182;2023-02-15T01:06:06;48.92;;;35.60;;
41903;SDS011;27586;51.124;4.182;2023-02-15T01:08:32;54.53;;;37.22;;
41903;SDS011;27586;51.124;4.182;2023-02-15T01:11:02;49.28;;;35.25;;
41903;SDS011;27586;51.124;4.182;2023-02-15T01:13:33;51.35;;;36.22;;
41903;SDS011;27586;51.124;4.182;2023-02-15T01:15:59;49.72;;;35.60;;
41903;SDS011;27586;51.124;4.182;2023-02-15T01:18:26;53.92;;;35.10;;
41903;SDS011;27586;51.124;4.182;2023-02-15T01:20:52;55.28;;;37.55;;
41903;SDS011;27586;51.124;4.182;2023-02-15T01:23:17;50.05;;;34.25;;
41903;SDS011;27586;51.124;4.182;2023-02-15T01:25:43;50.75;;;36.53;;
41903;SDS011;27586;51.124;4.182;2023-02-15T01:28:09;51.67;;;36.72;;
41903;SDS011;27586;51.124;4.182;2023-02-15T01:30:35;51.92;;;36.55;;
41903;SDS011;27586;51.124;4.182;2023-02-15T01:33:00;54.13;;;38.20;;
41903;SDS011;27586;51.124;4.182;2023-02-15T01:35:26;54.28;;;35.42;;
41903;SDS011;27586;51.124;4.182;2023-02-15T01:37:53;56.22;;;45.72;;
41903;SDS011;27586;51.124;4.182;2023-02-15T01:40:20;56.67;;;38.63;;
41903;SDS011;27586;51.124;4.182;2023-02-15T01:42:45;58.28;;;39.45;;
41903;SDS011;27586;51.124;4.182;2023-02-15T01:45:20;56.53;;;36.63;;
41903;SDS011;27586;51.124;4.182;2023-02-15T01:48:33;60.15;;;38.83;;
41903;SDS011;27586;51.124;4.182;2023-02-15T01:50:58;55.00;;;37.65;;
41903;SDS011;27586;51.124;4.182;2023-02-15T01:53:48;59.22;;;37.35;;
41903;SDS011;27586;51.124;4.182;2023-02-15T01:56:23;57.60;;;39.50;;
41903;SDS011;27586;51.124;4.182;2023-02-15T01:58:51;54.83;;;38.30;;
41903;SDS011;27586;51.124;4.182;2023-02-15T02:01:20;53.63;;;39.70;;
41903;SDS011;27586;51.124;4.182;2023-02-15T02:04:04;56.53;;;39.10;;
41903;SDS011;27586;51.124;4.182;2023-02-15T02:06:36;54.72;;;38.83;;
41903;SDS011;27586;51.124;4.182;2023-02-15T02:09:03;56.67;;;39.50;;
41903;SDS011;27586;51.124;4.182;2023-02-15T02:11:29;53.17;;;35.58;;
41903;SDS011;27586;51.124;4.182;2023-02-15T02:13:55;52.03;;;38.28;;
41903;SDS011;27586;51.124;4.182;2023-02-15T02:23:05;52.25;;;36.78;;
41903;SDS011;27586;51.124;4.182;2023-02-15T02:39:02;48.78;;;34.28;;
41903;SDS011;27586;51.124;4.182;2023-02-15T02:41:58;43.70;;;31.95;;
41903;SDS011;27586;51.124;4.182;2023-02-15T02:44:35;53.30;;;34.35;;
41903;SDS011;27586;51.124;4.182;2023-02-15T02:47:22;48.53;;;42.13;;
41903;SDS011;27586;51.124;4.182;2023-02-15T02:50:00;52.50;;;36.60;;
41903;SDS011;27586;51.124;4.182;2023-02-15T02:52:41;58.33;;;39.15;;
41903;SDS011;27586;51.124;4.182;2023-02-15T02:55:28;53.15;;;37.13;;
41903;SDS011;27586;51.124;4.182;2023-02-15T03:00:46;50.42;;;36.17;;
41903;SDS011;27586;51.124;4.182;2023-02-15T03:03:13;55.22;;;35.70;;
41903;SDS011;27586;51.124;4.182;2023-02-15T03:05:47;51.53;;;36.38;;
41903;SDS011;27586;51.124;4.182;2023-02-15T03:08:17;52.05;;;45.40;;
41903;SDS011;27586;51.124;4.182;2023-02-15T03:10:51;55.55;;;36.65;;
41903;SDS011;27586;51.124;4.182;2023-02-15T03:13:18;51.55;;;37.95;;
41903;SDS011;27586;51.124;4.182;2023-02-15T03:15:45;54.88;;;39.15;;
41903;SDS011;27586;51.124;4.182;2023-02-15T03:18:32;56.22;;;38.53;;
41903;SDS011;27586;51.124;4.182;2023-02-15T03:21:02;55.00;;;38.35;;
41903;SDS011;27586;51.124;4.182;2023-02-15T03:23:30;57.35;;;38.33;;
41903;SDS011;27586;51.124;4.182;2023-02-15T03:26:01;59.50;;;39.63;;
41903;SDS011;27586;51.124;4.182;2023-02-15T03:28:36;55.85;;;39.42;;
41903;SDS011;27586;51.124;4.182;2023-02-15T03:31:07;59.55;;;38.30;;
41903;SDS011;27586;51.124;4.182;2023-02-15T03:33:37;58.70;;;40.45;;
41903;SDS011;27586;51.124;4.182;2023-02-15T03:36:33;59.22;;;39.20;;
41903;SDS011;27586;51.124;4.182;2023-02-15T03:41:48;57.83;;;38.05;;
41903;SDS011;27586;51.124;4.182;2023-02-15T03:44:27;55.17;;;39.38;;
41903;SDS011;27586;51.124;4.182;2023-02-15T03:46:57;57.55;;;41.28;;
41903;SDS011;27586;51.124;4.182;2023-02-15T03:52:24;57.05;;;39.58;;
41903;SDS011;27586;51.124;4.182;2023-02-15T03:54:52;57.22;;;40.90;;
41903;SDS011;27586;51.124;4.182;2023-02-15T03:57:23;60.15;;;40.67;;
41903;SDS011;27586;51.124;4.182;2023-02-15T04:00:14;56.97;;;38.67;;
41903;SDS011;27586;51.124;4.182;2023-02-15T04:03:24;55.85;;;38.38;;
41903;SDS011;27586;51.124;4.182;2023-02-15T04:06:04;52.38;;;35.38;;
41903;SDS011;27586;51.124;4.182;2023-02-15T04:08:30;55.38;;;36.13;;
41903;SDS011;27586;51.124;4.182;2023-02-15T04:11:31;52.97;;;34.67;;
41903;SDS011;27586;51.124;4.182;2023-02-15T04:13:56;50.88;;;34.42;;
41903;SDS011;27586;51.124;4.182;2023-02-15T04:16:22;50.65;;;34.20;;
41903;SDS011;27586;51.124;4.182;2023-02-15T04:18:48;49.40;;;36.17;;
41903;SDS011;27586;51.124;4.182;2023-02-15T04:21:33;53.13;;;36.45;;
41903;SDS011;27586;51.124;4.182;2023-02-15T04:24:17;55.80;;;37.25;;
41903;SDS011;27586;51.124;4.182;2023-02-15T04:27:02;53.03;;;34.78;;
41903;SDS011;27586;51.124;4.182;2023-02-15T04:29:29;54.60;;;36.05;;
41903;SDS011;27586;51.124;4.182;2023-02-15T04:31:56;55.53;;;37.08;;
41903;SDS011;27586;51.124;4.182;2023-02-15T04:34:24;55.17;;;37.00;;
41903;SDS011;27586;51.124;4.182;2023-02-15T04:36:50;52.03;;;37.60;;
41903;SDS011;27586;51.124;4.182;2023-02-15T04:39:17;50.55;;;36.13;;
41903;SDS011;27586;51.124;4.182;2023-02-15T04:41:43;54.67;;;38.00;;
41903;SDS011;27586;51.124;4.182;2023-02-15T04:44:09;53.45;;;35.17;;
41903;SDS011;27586;51.124;4.182;2023-02-15T04:46:35;53.05;;;35.75;;
41903;SDS011;27586;51.124;4.182;2023-02-15T04:49:01;53.47;;;35.03;;
41903;SDS011;27586;51.124;4.182;2023-02-15T04:51:27;48.97;;;34.60;;
41903;SDS011;27586;51.124;4.182;2023-02-15T04:53:53;55.05;;;34.67;;
41903;SDS011;27586;51.124;4.182;2023-02-15T04:56:19;49.15;;;33.47;;
41903;SDS011;27586;51.124;4.182;2023-02-15T04:58:45;52.38;;;33.83;;
41903;SDS011;27586;51.124;4.182;2023-02-15T05:01:11;51.13;;;35.60;;
41903;SDS011;27586;51.124;4.182;2023-02-15T05:03:37;53.15;;;33.60;;
41903;SDS011;27586;51.124;4.182;2023-02-15T05:06:03;55.22;;;35.85;;
41903;SDS011;27586;51.124;4.182;2023-02-15T05:08:29;47.38;;;33.95;;
41903;SDS011;27586;51.124;4.182;2023-02-15T05:10:56;51.60;;;34.13;;
41903;SDS011;27586;51.124;4.182;2023-02-15T05:13:22;49.80;;;33.55;;
41903;SDS011;27586;51.124;4.182;2023-02-15T05:15:48;54.72;;;35.83;;
41903;SDS011;27586;51.124;4.182;2023-02-15T05:18:15;51.05;;;44.00;;
41903;SDS011;27586;51.124;4.182;2023-02-15T05:20:41;55.10;;;34.13;;
41903;SDS011;27586;51.124;4.182;2023-02-15T05:23:07;54.45;;;37.42;;
41903;SDS011;27586;51.124;4.182;2023-02-15T05:25:33;52.50;;;36.25;;
41903;SDS011;27586;51.124;4.182;2023-02-15T05:28:17;52.50;;;34.35;;
41903;SDS011;27586;51.124;4.182;2023-02-15T05:30:46;57.35;;;38.53;;
41903;SDS011;27586;51.124;4.182;2023-02-15T05:33:13;57.17;;;37.85;;
41903;SDS011;27586;51.124;4.182;2023-02-15T05:35:39;67.03;;;40.35;;
41903;SDS011;27586;51.124;4.182;2023-02-15T05:38:05;60.92;;;41.53;;
41903;SDS011;27586;51.124;4.182;2023-02-15T05:40:31;67.53;;;41.83;;
41903;SDS011;27586;51.124;4.182;2023-02-15T05:42:57;62.55;;;41.95;;
41903;SDS011;27586;51.124;4.182;2023-02-15T05:45:23;59.53;;;40.20;;
41903;SDS011;27586;51.124;4.182;2023-02-15T05:47:48;58.90;;;41.35;;
41903;SDS011;27586;51.124;4.182;2023-02-15T05:50:14;58.23;;;39.43;;
41903;SDS011;27586;51.124;4.182;2023-02-15T05:52:40;61.40;;;40.00;;
41903;SDS011;27586;51.124;4.182;2023-02-15T05:55:06;55.72;;;35.88;;
41903;SDS011;27586;51.124;4.182;2023-02-15T05:57:33;52.40;;;37.33;;
41903;SDS011;27586;51.124;4.182;2023-02-15T06:00:00;52.30;;;35.65;;
41903;SDS011;27586;51.124;4.182;2023-02-15T06:02:29;53.75;;;36.60;;
41903;SDS011;27586;51.124;4.182;2023-02-15T06:04:57;53.60;;;35.75;;
41903;SDS011;27586;51.124;4.182;2023-02-15T06:07:23;52.65;;;34.40;;
41903;SDS011;27586;51.124;4.182;2023-02-15T06:09:49;53.67;;;35.85;;
41903;SDS011;27586;51.124;4.182;2023-02-15T06:12:15;49.65;;;33.60;;
41903;SDS011;27586;51.124;4.182;2023-02-15T06:14:40;53.30;;;35.33;;
41903;SDS011;27586;51.124;4.182;2023-02-15T06:17:06;54.33;;;35.03;;
41903;SDS011;27586;51.124;4.182;2023-02-15T06:19:32;49.67;;;33.83;;
41903;SDS011;27586;51.124;4.182;2023-02-15T06:21:58;56.00;;;37.00;;
41903;SDS011;27586;51.124;4.182;2023-02-15T06:24:23;52.10;;;35.63;;
41903;SDS011;27586;51.124;4.182;2023-02-15T06:26:49;53.65;;;38.78;;
41903;SDS011;27586;51.124;4.182;2023-02-15T06:29:15;57.08;;;39.33;;
41903;SDS011;27586;51.124;4.182;2023-02-15T06:31:41;57.65;;;38.55;;
41903;SDS011;27586;51.124;4.182;2023-02-15T06:34:06;54.03;;;37.20;;
41903;SDS011;27586;51.124;4.182;2023-02-15T06:36:32;57.22;;;36.45;;
41903;SDS011;27586;51.124;4.182;2023-02-15T06:39:00;57.57;;;36.67;;
41903;SDS011;27586;51.124;4.182;2023-02-15T06:41:28;55.45;;;36.40;;
41903;SDS011;27586;51.124;4.182;2023-02-15T06:43:53;44.03;;;28.42;;
41903;SDS011;27586;51.124;4.182;2023-02-15T06:46:19;56.30;;;36.97;;
41903;SDS011;27586;51.124;4.182;2023-02-15T06:48:44;60.17;;;35.08;;
41903;SDS011;27586;51.124;4.182;2023-02-15T06:51:10;59.10;;;38.05;;
41903;SDS011;27586;51.124;4.182;2023-02-15T06:53:36;55.78;;;38.00;;
41903;SDS011;27586;51.124;4.182;2023-02-15T06:56:02;55.25;;;47.28;;
41903;SDS011;27586;51.124;4.182;2023-02-15T06:58:40;59.67;;;38.95;;
41903;SDS011;27586;51.124;4.182;2023-02-15T07:01:07;55.55;;;37.05;;
41903;SDS011;27586;51.124;4.182;2023-02-15T07:03:33;53.58;;;36.33;;
41903;SDS011;27586;51.124;4.182;2023-02-15T07:06:00;50.72;;;34.65;;
41903;SDS011;27586;51.124;4.182;2023-02-15T07:08:28;52.58;;;34.60;;
41903;SDS011;27586;51.124;4.182;2023-02-15T07:10:55;52.38;;;34.58;;
41903;SDS011;27586;51.124;4.182;2023-02-15T07:13:41;49.42;;;33.08;;
41903;SDS011;27586;51.124;4.182;2023-02-15T07:16:10;50.78;;;34.08;;
41903;SDS011;27586;51.124;4.182;2023-02-15T07:18:36;48.95;;;34.83;;
41903;SDS011;27586;51.124;4.182;2023-02-15T07:21:02;55.45;;;35.25;;
41903;SDS011;27586;51.124;4.182;2023-02-15T07:23:27;49.28;;;33.95;;
41903;SDS011;27586;51.124;4.182;2023-02-15T07:25:57;46.30;;;33.22;;
41903;SDS011;27586;51.124;4.182;2023-02-15T07:28:23;49.33;;;33.55;;
41903;SDS011;27586;51.124;4.182;2023-02-15T07:30:49;47.65;;;33.58;;
41903;SDS011;27586;51.124;4.182;2023-02-15T07:33:15;56.10;;;34.13;;
41903;SDS011;27586;51.124;4.182;2023-02-15T07:35:53;56.72;;;35.67;;
41903;SDS011;27586;51.124;4.182;2023-02-15T07:38:20;63.85;;;37.08;;
41903;SDS011;27586;51.124;4.182;2023-02-15T07:40:46;59.20;;;37.43;;
41903;SDS011;27586;51.124;4.182;2023-02-15T07:43:12;61.03;;;36.80;;
41903;SDS011;27586;51.124;4.182;2023-02-15T07:45:38;61.70;;;37.88;;
41903;SDS011;27586;51.124;4.182;2023-02-15T07:48:04;65.13;;;39.47;;
41903;SDS011;27586;51.124;4.182;2023-02-15T07:50:31;65.05;;;35.97;;
41903;SDS011;27586;51.124;4.182;2023-02-15T07:52:57;62.95;;;35.95;;
41903;SDS011;27586;51.124;4.182;2023-02-15T07:55:23;57.72;;;37.28;;
41903;SDS011;27586;51.124;4.182;2023-02-15T07:57:49;59.50;;;36.80;;
41903;SDS011;27586;51.124;4.182;2023-02-15T08:00:17;56.97;;;35.58;;
41903;SDS011;27586;51.124;4.182;2023-02-15T08:02:48;55.58;;;37.15;;
41903;SDS011;27586;51.124;4.182;2023-02-15T08:05:34;53.25;;;35.10;;
41903;SDS011;27586;51.124;4.182;2023-02-15T08:07:59;57.50;;;36.50;;
41903;SDS011;27586;51.124;4.182;2023-02-15T08:10:25;53.45;;;37.40;;
41903;SDS011;27586;51.124;4.182;2023-02-15T08:13:10;54.95;;;36.88;;
41903;SDS011;27586;51.124;4.182;2023-02-15T08:15:36;50.70;;;36.33;;
41903;SDS011;27586;51.124;4.182;2023-02-15T08:18:02;54.53;;;36.33;;
41903;SDS011;27586;51.124;4.182;2023-02-15T08:20:28;54.10;;;35.25;;
41903;SDS011;27586;51.124;4.182;2023-02-15T08:22:53;52.58;;;34.10;;
41903;SDS011;27586;51.124;4.182;2023-02-15T08:25:19;47.78;;;41.80;;
41903;SDS011;27586;51.124;4.182;2023-02-15T08:27:44;54.78;;;36.28;;
41903;SDS011;27586;51.124;4.182;2023-02-15T08:30:10;51.15;;;33.47;;
41903;SDS011;27586;51.124;4.182;2023-02-15T08:32:39;51.92;;;35.30;;
41903;SDS011;27586;51.124;4.182;2023-02-15T08:35:05;52.03;;;36.78;;
41903;SDS011;27586;51.124;4.182;2023-02-15T08:37:31;53.00;;;37.10;;
41903;SDS011;27586;51.124;4.182;2023-02-15T08:39:57;53.83;;;35.60;;
41903;SDS011;27586;51.124;4.182;2023-02-15T08:42:22;50.35;;;36.25;;
41903;SDS011;27586;51.124;4.182;2023-02-15T08:44:48;49.67;;;39.10;;
41903;SDS011;27586;51.124;4.182;2023-02-15T08:47:15;56.38;;;40.47;;
41903;SDS011;27586;51.124;4.182;2023-02-15T08:49:41;56.53;;;38.78;;
41903;SDS011;27586;51.124;4.182;2023-02-15T08:52:06;56.05;;;38.35;;
41903;SDS011;27586;51.124;4.182;2023-02-15T08:54:32;53.85;;;37.40;;
41903;SDS011;27586;51.124;4.182;2023-02-15T08:56:58;50.58;;;35.47;;
41903;SDS011;27586;51.124;4.182;2023-02-15T08:59:24;43.83;;;39.03;;
41903;SDS011;27586;51.124;4.182;2023-02-15T09:01:51;50.58;;;35.88;;
41903;SDS011;27586;51.124;4.182;2023-02-15T09:04:18;52.83;;;37.20;;
41903;SDS011;27586;51.124;4.182;2023-02-15T09:06:45;48.50;;;36.28;;
41903;SDS011;27586;51.124;4.182;2023-02-15T09:09:12;49.25;;;36.10;;
41903;SDS011;27586;51.124;4.182;2023-02-15T09:11:38;50.25;;;36.67;;
41903;SDS011;27586;51.124;4.182;2023-02-15T09:14:07;47.88;;;34.97;;
41903;SDS011;27586;51.124;4.182;2023-02-15T09:16:35;49.45;;;36.28;;
41903;SDS011;27586;51.124;4.182;2023-02-15T09:19:02;46.10;;;35.15;;
41903;SDS011;27586;51.124;4.182;2023-02-15T09:21:32;47.05;;;35.50;;
41903;SDS011;27586;51.124;4.182;2023-02-15T09:24:02;46.22;;;35.20;;
41903;SDS011;27586;51.124;4.182;2023-02-15T09:26:30;43.38;;;34.83;;
41903;SDS011;27586;51.124;4.182;2023-02-15T09:28:58;51.97;;;37.05;;
41903;SDS011;27586;51.124;4.182;2023-02-15T09:31:32;44.95;;;32.65;;
41903;SDS011;27586;51.124;4.182;2023-02-15T09:34:01;43.88;;;34.00;;
41903;SDS011;27586;51.124;4.182;2023-02-15T09:36:31;42.78;;;33.42;;
41903;SDS011;27586;51.124;4.182;2023-02-15T09:39:01;40.03;;;30.88;;
41903;SDS011;27586;51.124;4.182;2023-02-15T09:59:03;37.22;;;33.03;;
41903;SDS011;27586;51.124;4.182;2023-02-15T10:09:02;38.97;;;30.60;;
41903;SDS011;27586;51.124;4.182;2023-02-15T10:14:56;37.53;;;30.33;;
41903;SDS011;27586;51.124;4.182;2023-02-15T10:20:56;37.03;;;30.90;;
41903;SDS011;27586;51.124;4.182;2023-02-15T10:26:21;35.40;;;28.42;;
41903;SDS011;27586;51.124;4.182;2023-02-15T10:28:53;36.53;;;29.42;;
41903;SDS011;27586;51.124;4.182;2023-02-15T10:36:47;33.38;;;27.65;;
41903;SDS011;27586;51.124;4.182;2023-02-15T10:39:34;33.55;;;27.35;;
41903;SDS011;27586;51.124;4.182;2023-02-15T10:42:20;33.17;;;28.90;;
41903;SDS011;27586;51.124;4.182;2023-02-15T10:45:10;34.03;;;27.77;;
41903;SDS011;27586;51.124;4.182;2023-02-15T10:48:02;33.58;;;27.85;;
41903;SDS011;27586;51.124;4.182;2023-02-15T10:50:51;32.58;;;26.85;;
41903;SDS011;27586;51.124;4.182;2023-02-15T10:53:43;33.60;;;27.60;;
41903;SDS011;27586;51.124;4.182;2023-02-15T10:56:43;32.05;;;27.30;;
41903;SDS011;27586;51.124;4.182;2023-02-15T11:01:59;35.88;;;28.35;;
41903;SDS011;27586;51.124;4.182;2023-02-15T11:12:53;31.27;;;26.77;;
41903;SDS011;27586;51.124;4.182;2023-02-15T11:15:32;30.65;;;26.48;;
41903;SDS011;27586;51.124;4.182;2023-02-15T11:18:25;33.65;;;26.77;;
41903;SDS011;27586;51.124;4.182;2023-02-15T11:20:56;32.78;;;26.85;;
41903;SDS011;27586;51.124;4.182;2023-02-15T11:23:27;32.30;;;26.35;;
41903;SDS011;27586;51.124;4.182;2023-02-15T11:25:57;31.30;;;25.98;;
41903;SDS011;27586;51.124;4.182;2023-02-15T11:28:33;31.67;;;26.77;;
41903;SDS011;27586;51.124;4.182;2023-02-15T11:31:15;33.90;;;27.13;;
41903;SDS011;27586;51.124;4.182;2023-02-15T11:33:54;33.33;;;26.08;;
41903;SDS011;27586;51.124;4.182;2023-02-15T11:36:26;31.17;;;26.38;;
41903;SDS011;27586;51.124;4.182;2023-02-15T11:39:02;31.75;;;26.52;;
41903;SDS011;27586;51.124;4.182;2023-02-15T11:42:01;33.33;;;26.73;;
41903;SDS011;27586;51.124;4.182;2023-02-15T11:44:32;33.88;;;27.25;;
41903;SDS011;27586;51.124;4.182;2023-02-15T11:47:07;33.20;;;26.80;;
41903;SDS011;27586;51.124;4.182;2023-02-15T11:49:35;32.65;;;26.35;;
41903;SDS011;27586;51.124;4.182;2023-02-15T11:52:05;31.77;;;25.77;;
41903;SDS011;27586;51.124;4.182;2023-02-15T11:54:33;31.60;;;25.98;;
41903;SDS011;27586;51.124;4.182;2023-02-15T11:57:12;32.55;;;26.45;;
41903;SDS011;27586;51.124;4.182;2023-02-15T12:02:46;32.70;;;25.63;;
41903;SDS011;27586;51.124;4.182;2023-02-15T12:05:17;32.20;;;26.20;;
41903;SDS011;27586;51.124;4.182;2023-02-15T12:07:52;34.90;;;26.80;;
41903;SDS011;27586;51.124;4.182;2023-02-15T12:10:23;34.65;;;27.67;;
41903;SDS011;27586;51.124;4.182;2023-02-15T12:15:35;33.05;;;25.42;;
41903;SDS011;27586;51.124;4.182;2023-02-15T12:18:01;31.38;;;26.92;;
41903;SDS011;27586;51.124;4.182;2023-02-15T12:20:33;32.83;;;26.63;;
41903;SDS011;27586;51.124;4.182;2023-02-15T12:23:03;34.53;;;26.35;;
41903;SDS011;27586;51.124;4.182;2023-02-15T12:25:40;30.27;;;26.10;;
41903;SDS011;27586;51.124;4.182;2023-02-15T12:28:19;30.92;;;25.75;;
41903;SDS011;27586;51.124;4.182;2023-02-15T12:30:49;32.90;;;26.42;;
41903;SDS011;27586;51.124;4.182;2023-02-15T12:33:26;31.02;;;26.60;;
41903;SDS011;27586;51.124;4.182;2023-02-15T12:39:05;32.85;;;26.10;;
41903;SDS011;27586;51.124;4.182;2023-02-15T12:41:31;33.22;;;26.05;;
41903;SDS011;27586;51.124;4.182;2023-02-15T12:44:07;30.45;;;26.13;;
41903;SDS011;27586;51.124;4.182;2023-02-15T12:46:55;32.55;;;26.70;;
41903;SDS011;27586;51.124;4.182;2023-02-15T12:49:34;32.17;;;27.05;;
41903;SDS011;27586;51.124;4.182;2023-02-15T12:52:01;30.45;;;26.30;;
41903;SDS011;27586;51.124;4.182;2023-02-15T12:54:48;33.55;;;27.90;;
41903;SDS011;27586;51.124;4.182;2023-02-15T12:57:33;31.95;;;26.77;;
41903;SDS011;27586;51.124;4.182;2023-02-15T12:59:59;32.50;;;26.65;;
41903;SDS011;27586;51.124;4.182;2023-02-15T13:02:53;33.63;;;26.20;;
41903;SDS011;27586;51.124;4.182;2023-02-15T13:13:26;35.35;;;26.23;;
41903;SDS011;27586;51.124;4.182;2023-02-15T13:16:04;32.55;;;27.25;;
41903;SDS011;27586;51.124;4.182;2023-02-15T13:18:38;31.27;;;26.25;;
41903;SDS011;27586;51.124;4.182;2023-02-15T13:23:36;32.55;;;26.35;;
41903;SDS011;27586;51.124;4.182;2023-02-15T13:26:04;33.83;;;27.98;;
41903;SDS011;27586;51.124;4.182;2023-02-15T13:28:39;34.28;;;27.83;;
41903;SDS011;27586;51.124;4.182;2023-02-15T13:31:13;34.88;;;27.85;;
41903;SDS011;27586;51.124;4.182;2023-02-15T13:33:43;32.63;;;27.63;;
41903;SDS011;27586;51.124;4.182;2023-02-15T13:36:34;32.58;;;26.95;;
41903;SDS011;27586;51.124;4.182;2023-02-15T13:39:19;31.23;;;27.60;;
41903;SDS011;27586;51.124;4.182;2023-02-15T13:41:59;33.17;;;26.90;;
41903;SDS011;27586;51.124;4.182;2023-02-15T13:50:07;31.60;;;27.40;;
41903;SDS011;27586;51.124;4.182;2023-02-15T13:55:40;35.20;;;26.92;;
41903;SDS011;27586;51.124;4.182;2023-02-15T14:12:11;31.67;;;26.80;;
41903;SDS011;27586;51.124;4.182;2023-02-15T14:17:56;32.30;;;26.63;;
41903;SDS011;27586;51.124;4.182;2023-02-15T14:20:29;31.05;;;27.45;;
41903;SDS011;27586;51.124;4.182;2023-02-15T14:31:26;35.33;;;26.50;;
41903;SDS011;27586;51.124;4.182;2023-02-15T14:33:58;33.72;;;26.80;;
41903;SDS011;27586;51.124;4.182;2023-02-15T14:36:24;33.63;;;27.98;;
41903;SDS011;27586;51.124;4.182;2023-02-15T15:25:45;34.35;;;25.92;;
41903;SDS011;27586;51.124;4.182;2023-02-15T15:33:44;31.88;;;26.05;;
41903;SDS011;27586;51.124;4.182;2023-02-15T15:47:49;30.85;;;27.50;;
41903;SDS011;27586;51.124;4.182;2023-02-15T15:50:19;33.33;;;27.13;;
41903;SDS011;27586;51.124;4.182;2023-02-15T15:52:46;32.88;;;27.40;;
41903;SDS011;27586;51.124;4.182;2023-02-15T15:55:27;31.23;;;27.45;;
41903;SDS011;27586;51.124;4.182;2023-02-15T15:57:56;30.65;;;27.40;;
41903;SDS011;27586;51.124;4.182;2023-02-15T16:00:27;31.38;;;27.83;;
41903;SDS011;27586;51.124;4.182;2023-02-15T16:03:05;31.15;;;26.73;;
41903;SDS011;27586;51.124;4.182;2023-02-15T16:05:38;31.95;;;27.10;;
41903;SDS011;27586;51.124;4.182;2023-02-15T16:08:04;31.17;;;26.73;;
41903;SDS011;27586;51.124;4.182;2023-02-15T16:10:30;32.05;;;27.02;;
41903;SDS011;27586;51.124;4.182;2023-02-15T16:12:58;29.70;;;26.48;;
41903;SDS011;27586;51.124;4.182;2023-02-15T16:15:36;32.25;;;27.55;;
41903;SDS011;27586;51.124;4.182;2023-02-15T16:18:17;30.75;;;26.75;;
41903;SDS011;27586;51.124;4.182;2023-02-15T16:20:56;31.45;;;26.55;;
41903;SDS011;27586;51.124;4.182;2023-02-15T16:28:47;33.00;;;26.13;;
41903;SDS011;27586;51.124;4.182;2023-02-15T16:31:19;33.33;;;28.00;;
41903;SDS011;27586;51.124;4.182;2023-02-15T16:33:52;31.58;;;27.35;;
41903;SDS011;27586;51.124;4.182;2023-02-15T16:41:20;34.63;;;28.27;;
41903;SDS011;27586;51.124;4.182;2023-02-15T16:43:49;32.47;;;26.75;;
41903;SDS011;27586;51.124;4.182;2023-02-15T16:46:18;33.58;;;26.77;;
41903;SDS011;27586;51.124;4.182;2023-02-15T16:49:15;33.13;;;28.02;;
41903;SDS011;27586;51.124;4.182;2023-02-15T16:51:43;33.45;;;27.40;;
41903;SDS011;27586;51.124;4.182;2023-02-15T16:54:16;29.88;;;26.60;;
41903;SDS011;27586;51.124;4.182;2023-02-15T16:56:45;34.05;;;27.98;;
41903;SDS011;27586;51.124;4.182;2023-02-15T17:02:05;34.63;;;29.83;;
41903;SDS011;27586;51.124;4.182;2023-02-15T17:04:37;32.25;;;28.80;;
41903;SDS011;27586;51.124;4.182;2023-02-15T17:07:17;33.95;;;28.70;;
41903;SDS011;27586;51.124;4.182;2023-02-15T17:09:51;32.60;;;28.95;;
41903;SDS011;27586;51.124;4.182;2023-02-15T17:15:02;36.35;;;29.05;;
41903;SDS011;27586;51.124;4.182;2023-02-15T17:17:30;36.40;;;29.20;;
41903;SDS011;27586;51.124;4.182;2023-02-15T17:19:56;32.65;;;28.63;;
41903;SDS011;27586;51.124;4.182;2023-02-15T17:22:23;33.42;;;29.35;;
41903;SDS011;27586;51.124;4.182;2023-02-15T17:24:59;37.90;;;29.90;;
41903;SDS011;27586;51.124;4.182;2023-02-15T17:27:28;33.40;;;29.83;;
41903;SDS011;27586;51.124;4.182;2023-02-15T17:29:59;33.55;;;29.45;;
41903;SDS011;27586;51.124;4.182;2023-02-15T17:32:27;33.92;;;30.05;;
41903;SDS011;27586;51.124;4.182;2023-02-15T17:37:42;37.30;;;31.25;;
41903;SDS011;27586;51.124;4.182;2023-02-15T17:42:45;35.13;;;31.27;;
41903;SDS011;27586;51.124;4.182;2023-02-15T17:45:11;35.97;;;30.98;;
41903;SDS011;27586;51.124;4.182;2023-02-15T17:47:37;34.75;;;31.02;;
41903;SDS011;27586;51.124;4.182;2023-02-15T17:50:05;34.03;;;30.13;;
41903;SDS011;27586;51.124;4.182;2023-02-15T17:52:32;37.65;;;32.22;;
41903;SDS011;27586;51.124;4.182;2023-02-15T17:54:58;36.78;;;32.70;;
41903;SDS011;27586;51.124;4.182;2023-02-15T17:57:48;39.47;;;33.10;;
41903;SDS011;27586;51.124;4.182;2023-02-15T18:00:14;39.20;;;33.22;;
41903;SDS011;27586;51.124;4.182;2023-02-15T18:02:58;38.35;;;33.88;;
41903;SDS011;27586;51.124;4.182;2023-02-15T18:05:42;37.85;;;33.75;;
41903;SDS011;27586;51.124;4.182;2023-02-15T18:08:27;41.35;;;33.65;;
41903;SDS011;27586;51.124;4.182;2023-02-15T18:11:11;38.72;;;34.53;;
41903;SDS011;27586;51.124;4.182;2023-02-15T18:13:56;40.33;;;34.38;;
41903;SDS011;27586;51.124;4.182;2023-02-15T18:16:26;39.63;;;35.42;;
41903;SDS011;27586;51.124;4.182;2023-02-15T18:18:54;37.67;;;33.58;;
41903;SDS011;27586;51.124;4.182;2023-02-15T18:21:21;41.63;;;35.13;;